sensor_id;sensor_type;location;lat;lon;timestamp;pressure;altitude;pressure_sealevel;temperature;humidity
1371;BME280;14306;49.942;11.570;2023-05-24T00:02:24;97785.59;;;13.81;59.54
1371;BME280;14306;49.942;11.570;2023-05-24T00:04:52;97787.34;;;13.77;60.25
1371;BME280;14306;49.942;11.570;2023-05-24T00:07:22;97802.09;;;13.85;59.50
1371;BME280;14306;49.942;11.570;2023-05-24T00:09:51;97764.34;;;13.53;60.37
1371;BME280;14306;49.942;11.570;2023-05-24T00:12:20;97775.75;;;13.55;60.50
1371;BME280;14306;49.942;11.570;2023-05-24T00:14:49;97770.63;;;13.62;60.26
1371;BME280;14306;49.942;11.570;2023-05-24T00:17:18;97773.28;;;13.45;60.98
1371;BME280;14306;49.942;11.570;2023-05-24T00:19:50;97754.75;;;13.47;60.67
1371;BME280;14306;49.942;11.570;2023-05-24T00:22:19;97777.50;;;13.59;60.25
1371;BME280;14306;49.942;11.570;2023-05-24T00:24:49;97777.81;;;13.58;60.40
1371;BME280;14306;49.942;11.570;2023-05-24T00:27:18;97772.72;;;13.65;59.82
1371;BME280;14306;49.942;11.570;2023-05-24T00:29:48;97773.84;;;13.33;60.98
1371;BME280;14306;49.942;11.570;2023-05-24T00:32:17;97781.13;;;13.46;60.54
1371;BME280;14306;49.942;11.570;2023-05-24T00:34:46;97765.03;;;13.58;59.80
1371;BME280;14306;49.942;11.570;2023-05-24T00:37:17;97732.84;;;13.21;60.92
1371;BME280;14306;49.942;11.570;2023-05-24T00:39:46;97774.66;;;13.64;60.20
1371;BME280;14306;49.942;11.570;2023-05-24T00:42:15;97769.53;;;13.63;60.29
1371;BME280;14306;49.942;11.570;2023-05-24T00:44:45;97765.94;;;13.54;60.26
1371;BME280;14306;49.942;11.570;2023-05-24T00:47:14;97756.59;;;13.38;60.71
1371;BME280;14306;49.942;11.570;2023-05-24T00:49:43;97766.59;;;13.51;60.55
1371;BME280;14306;49.942;11.570;2023-05-24T00:52:12;97756.75;;;12.89;61.51
1371;BME280;14306;49.942;11.570;2023-05-24T00:54:43;97771.56;;;13.18;61.31
1371;BME280;14306;49.942;11.570;2023-05-24T00:57:12;97773.59;;;13.13;61.33
1371;BME280;14306;49.942;11.570;2023-05-24T00:59:41;97764.28;;;13.36;60.86
1371;BME280;14306;49.942;11.570;2023-05-24T01:02:13;97763.97;;;13.07;61.59
1371;BME280;14306;49.942;11.570;2023-05-24T01:04:43;97765.63;;;13.16;60.57
1371;BME280;14306;49.942;11.570;2023-05-24T01:07:21;97742.81;;;13.04;61.31
1371;BME280;14306;49.942;11.570;2023-05-24T01:10:02;97764.63;;;12.90;61.86
1371;BME280;14306;49.942;11.570;2023-05-24T01:12:39;97756.41;;;13.04;61.79
1371;BME280;14306;49.942;11.570;2023-05-24T01:15:22;97750.97;;;13.04;61.37
1371;BME280;14306;49.942;11.570;2023-05-24T01:18:00;97750.72;;;13.14;61.33
1371;BME280;14306;49.942;11.570;2023-05-24T01:20:32;97762.91;;;13.16;61.34
1371;BME280;14306;49.942;11.570;2023-05-24T01:23:28;97745.47;;;12.73;61.71
1371;BME280;14306;49.942;11.570;2023-05-24T01:26:12;97749.44;;;13.11;61.64
1371;BME280;14306;49.942;11.570;2023-05-24T01:28:46;97746.66;;;13.03;62.44
1371;BME280;14306;49.942;11.570;2023-05-24T01:31:17;97745.88;;;12.89;62.26
1371;BME280;14306;49.942;11.570;2023-05-24T01:33:46;97763.31;;;12.88;62.33
1371;BME280;14306;49.942;11.570;2023-05-24T01:36:15;97745.97;;;12.75;62.11
1371;BME280;14306;49.942;11.570;2023-05-24T01:38:44;97719.97;;;12.83;62.29
1371;BME280;14306;49.942;11.570;2023-05-24T01:41:21;97741.13;;;12.94;62.68
1371;BME280;14306;49.942;11.570;2023-05-24T01:43:57;97740.81;;;12.74;62.80
1371;BME280;14306;49.942;11.570;2023-05-24T01:46:34;97726.91;;;12.67;62.98
1371;BME280;14306;49.942;11.570;2023-05-24T01:49:15;97721.94;;;12.69;62.68
1371;BME280;14306;49.942;11.570;2023-05-24T01:51:50;97748.50;;;12.72;63.51
1371;BME280;14306;49.942;11.570;2023-05-24T01:54:23;97738.31;;;12.77;62.80
1371;BME280;14306;49.942;11.570;2023-05-24T01:56:54;97746.91;;;12.71;63.38
1371;BME280;14306;49.942;11.570;2023-05-24T01:59:27;97758.00;;;12.61;63.38
1371;BME280;14306;49.942;11.570;2023-05-24T02:01:57;97736.19;;;12.52;63.51
1371;BME280;14306;49.942;11.570;2023-05-24T02:04:27;97746.44;;;12.55;63.99
1371;BME280;14306;49.942;11.570;2023-05-24T02:06:56;97740.47;;;12.67;63.33
1371;BME280;14306;49.942;11.570;2023-05-24T02:09:25;97757.88;;;12.88;63.37
1371;BME280;14306;49.942;11.570;2023-05-24T02:11:53;97750.84;;;12.65;63.80
1371;BME280;14306;49.942;11.570;2023-05-24T02:14:22;97748.31;;;12.46;64.18
1371;BME280;14306;49.942;11.570;2023-05-24T02:16:55;97745.16;;;12.53;63.82
1371;BME280;14306;49.942;11.570;2023-05-24T02:19:25;97745.34;;;12.34;64.24
1371;BME280;14306;49.942;11.570;2023-05-24T02:21:54;97747.63;;;12.41;63.96
1371;BME280;14306;49.942;11.570;2023-05-24T02:24:23;97750.13;;;12.37;64.35
1371;BME280;14306;49.942;11.570;2023-05-24T02:26:53;97755.72;;;12.54;63.87
1371;BME280;14306;49.942;11.570;2023-05-24T02:29:24;97759.88;;;12.52;63.79
1371;BME280;14306;49.942;11.570;2023-05-24T02:31:55;97747.09;;;12.39;64.21
1371;BME280;14306;49.942;11.570;2023-05-24T02:34:24;97777.88;;;12.48;63.13
1371;BME280;14306;49.942;11.570;2023-05-24T02:36:52;97764.22;;;12.39;63.58
1371;BME280;14306;49.942;11.570;2023-05-24T02:39:22;97751.84;;;11.98;63.99
1371;BME280;14306;49.942;11.570;2023-05-24T02:41:51;97743.59;;;12.03;64.15
1371;BME280;14306;49.942;11.570;2023-05-24T02:44:20;97756.91;;;12.26;63.87
1371;BME280;14306;49.942;11.570;2023-05-24T02:46:49;97762.72;;;12.33;63.33
1371;BME280;14306;49.942;11.570;2023-05-24T02:49:23;97737.22;;;12.21;62.98
1371;BME280;14306;49.942;11.570;2023-05-24T02:51:52;97750.78;;;12.56;62.19
1371;BME280;14306;49.942;11.570;2023-05-24T02:54:22;97759.09;;;12.38;62.51
1371;BME280;14306;49.942;11.570;2023-05-24T02:56:52;97756.25;;;12.43;63.22
1371;BME280;14306;49.942;11.570;2023-05-24T02:59:23;97756.81;;;12.31;62.85
1371;BME280;14306;49.942;11.570;2023-05-24T03:01:52;97752.28;;;12.27;63.18
1371;BME280;14306;49.942;11.570;2023-05-24T03:04:24;97754.78;;;12.37;62.72
1371;BME280;14306;49.942;11.570;2023-05-24T03:06:54;97752.91;;;12.10;63.32
1371;BME280;14306;49.942;11.570;2023-05-24T03:09:23;97755.44;;;12.07;63.14
1371;BME280;14306;49.942;11.570;2023-05-24T03:11:52;97766.25;;;12.34;62.93
1371;BME280;14306;49.942;11.570;2023-05-24T03:14:23;97761.38;;;12.44;62.51
1371;BME280;14306;49.942;11.570;2023-05-24T03:16:52;97762.81;;;12.42;62.82
1371;BME280;14306;49.942;11.570;2023-05-24T03:19:23;97771.81;;;12.29;62.72
1371;BME280;14306;49.942;11.570;2023-05-24T03:21:53;97772.81;;;12.33;63.10
1371;BME280;14306;49.942;11.570;2023-05-24T03:24:23;97767.16;;;12.29;63.08
1371;BME280;14306;49.942;11.570;2023-05-24T03:26:52;97749.91;;;12.12;63.18
1371;BME280;14306;49.942;11.570;2023-05-24T03:29:21;97765.78;;;12.18;63.60
1371;BME280;14306;49.942;11.570;2023-05-24T03:31:49;97775.16;;;12.12;63.54
1371;BME280;14306;49.942;11.570;2023-05-24T03:34:19;97779.28;;;12.10;63.89
1371;BME280;14306;49.942;11.570;2023-05-24T03:36:50;97780.59;;;12.12;63.94
1371;BME280;14306;49.942;11.570;2023-05-24T03:39:19;97772.53;;;12.21;63.62
1371;BME280;14306;49.942;11.570;2023-05-24T03:41:49;97779.66;;;12.17;63.86
1371;BME280;14306;49.942;11.570;2023-05-24T03:44:18;97755.38;;;11.84;64.37
1371;BME280;14306;49.942;11.570;2023-05-24T03:46:51;97769.03;;;11.93;64.70
1371;BME280;14306;49.942;11.570;2023-05-24T03:49:30;97771.22;;;12.05;64.07
1371;BME280;14306;49.942;11.570;2023-05-24T03:52:02;97775.44;;;12.11;63.84
1371;BME280;14306;49.942;11.570;2023-05-24T03:54:30;97771.03;;;12.15;63.93
1371;BME280;14306;49.942;11.570;2023-05-24T03:56:59;97778.53;;;12.31;63.58
1371;BME280;14306;49.942;11.570;2023-05-24T03:59:29;97769.59;;;12.17;63.00
1371;BME280;14306;49.942;11.570;2023-05-24T04:01:58;97790.78;;;12.42;62.79
1371;BME280;14306;49.942;11.570;2023-05-24T04:04:27;97783.13;;;12.44;62.64
1371;BME280;14306;49.942;11.570;2023-05-24T04:06:59;97775.47;;;12.68;61.52
1371;BME280;14306;49.942;11.570;2023-05-24T04:09:30;97774.44;;;12.56;62.37
1371;BME280;14306;49.942;11.570;2023-05-24T04:12:00;97780.81;;;12.38;62.61
1371;BME280;14306;49.942;11.570;2023-05-24T04:14:31;97791.69;;;12.73;61.72
1371;BME280;14306;49.942;11.570;2023-05-24T04:17:02;97792.06;;;12.80;61.93
1371;BME280;14306;49.942;11.570;2023-05-24T04:19:33;97778.38;;;12.50;61.15
1371;BME280;14306;49.942;11.570;2023-05-24T04:22:02;97774.81;;;12.63;61.60
1371;BME280;14306;49.942;11.570;2023-05-24T04:24:34;97784.47;;;12.91;59.97
1371;BME280;14306;49.942;11.570;2023-05-24T04:27:03;97782.34;;;12.88;60.53
1371;BME280;14306;49.942;11.570;2023-05-24T04:29:32;97781.75;;;12.91;60.51
1371;BME280;14306;49.942;11.570;2023-05-24T04:32:05;97786.47;;;12.99;60.39
1371;BME280;14306;49.942;11.570;2023-05-24T04:34:34;97773.72;;;13.08;60.24
1371;BME280;14306;49.942;11.570;2023-05-24T04:37:02;97779.75;;;12.61;61.27
1371;BME280;14306;49.942;11.570;2023-05-24T04:39:33;97789.59;;;12.92;60.47
1371;BME280;14306;49.942;11.570;2023-05-24T04:42:03;97770.13;;;12.77;60.59
1371;BME280;14306;49.942;11.570;2023-05-24T04:44:33;97773.69;;;12.64;61.03
1371;BME280;14306;49.942;11.570;2023-05-24T04:47:02;97786.56;;;12.94;60.44
1371;BME280;14306;49.942;11.570;2023-05-24T04:49:31;97791.78;;;12.46;60.60
1371;BME280;14306;49.942;11.570;2023-05-24T04:51:59;97779.06;;;12.55;60.12
1371;BME280;14306;49.942;11.570;2023-05-24T04:54:29;97797.25;;;12.90;60.15
1371;BME280;14306;49.942;11.570;2023-05-24T04:56:59;97787.16;;;12.69;60.38
1371;BME280;14306;49.942;11.570;2023-05-24T04:59:28;97790.09;;;12.72;60.51
1371;BME280;14306;49.942;11.570;2023-05-24T05:01:57;97812.94;;;12.93;59.87
1371;BME280;14306;49.942;11.570;2023-05-24T05:04:25;97794.88;;;12.75;60.30
1371;BME280;14306;49.942;11.570;2023-05-24T05:06:53;97801.06;;;12.89;59.73
1371;BME280;14306;49.942;11.570;2023-05-24T05:09:23;97787.91;;;12.83;59.66
1371;BME280;14306;49.942;11.570;2023-05-24T05:11:53;97821.31;;;13.19;59.14
1371;BME280;14306;49.942;11.570;2023-05-24T05:14:24;97814.38;;;13.65;57.27
1371;BME280;14306;49.942;11.570;2023-05-24T05:16:53;97816.75;;;13.36;57.69
1371;BME280;14306;49.942;11.570;2023-05-24T05:19:23;97815.41;;;13.25;58.39
1371;BME280;14306;49.942;11.570;2023-05-24T05:21:53;97829.22;;;13.59;57.14
1371;BME280;14306;49.942;11.570;2023-05-24T05:24:25;97815.28;;;13.61;57.37
1371;BME280;14306;49.942;11.570;2023-05-24T05:26:55;97820.06;;;13.47;57.75
1371;BME280;14306;49.942;11.570;2023-05-24T05:29:29;97842.13;;;13.76;56.99
1371;BME280;14306;49.942;11.570;2023-05-24T05:32:00;97829.78;;;13.70;56.87
1371;BME280;14306;49.942;11.570;2023-05-24T05:34:41;97822.19;;;13.28;57.85
1371;BME280;14306;49.942;11.570;2023-05-24T05:37:12;97843.19;;;13.36;57.82
1371;BME280;14306;49.942;11.570;2023-05-24T05:39:43;97822.44;;;13.48;57.42
1371;BME280;14306;49.942;11.570;2023-05-24T05:42:12;97838.50;;;13.58;57.57
1371;BME280;14306;49.942;11.570;2023-05-24T05:44:44;97824.75;;;13.63;56.83
1371;BME280;14306;49.942;11.570;2023-05-24T05:47:13;97856.78;;;14.36;56.09
1371;BME280;14306;49.942;11.570;2023-05-24T05:49:42;97838.00;;;14.26;55.04
1371;BME280;14306;49.942;11.570;2023-05-24T05:52:10;97848.28;;;14.29;55.50
1371;BME280;14306;49.942;11.570;2023-05-24T05:54:39;97846.06;;;14.00;56.10
1371;BME280;14306;49.942;11.570;2023-05-24T05:57:24;97861.25;;;14.23;55.25
1371;BME280;14306;49.942;11.570;2023-05-24T05:59:57;97868.22;;;14.55;54.60
1371;BME280;14306;49.942;11.570;2023-05-24T06:02:26;97867.19;;;13.95;54.54
1371;BME280;14306;49.942;11.570;2023-05-24T06:04:55;97875.03;;;14.27;53.72
1371;BME280;14306;49.942;11.570;2023-05-24T06:07:24;97861.84;;;13.51;55.05
1371;BME280;14306;49.942;11.570;2023-05-24T06:09:53;97856.75;;;12.92;56.36
1371;BME280;14306;49.942;11.570;2023-05-24T06:12:22;97860.66;;;13.43;55.35
1371;BME280;14306;49.942;11.570;2023-05-24T06:14:50;97828.41;;;13.28;55.08
1371;BME280;14306;49.942;11.570;2023-05-24T06:17:22;97844.56;;;13.55;54.15
1371;BME280;14306;49.942;11.570;2023-05-24T06:19:51;97850.28;;;13.45;53.11
1371;BME280;14306;49.942;11.570;2023-05-24T06:22:22;97872.75;;;13.51;53.38
1371;BME280;14306;49.942;11.570;2023-05-24T06:24:51;97843.03;;;14.02;51.39
1371;BME280;14306;49.942;11.570;2023-05-24T06:27:20;97885.03;;;14.09;51.85
1371;BME280;14306;49.942;11.570;2023-05-24T06:29:49;97893.09;;;14.62;49.96
1371;BME280;14306;49.942;11.570;2023-05-24T06:32:24;97893.75;;;15.01;49.32
1371;BME280;14306;49.942;11.570;2023-05-24T06:34:53;97927.41;;;15.99;47.29
1371;BME280;14306;49.942;11.570;2023-05-24T06:37:22;97913.41;;;15.46;48.09
1371;BME280;14306;49.942;11.570;2023-05-24T06:39:52;97925.94;;;16.10;48.14
1371;BME280;14306;49.942;11.570;2023-05-24T06:42:21;97963.88;;;17.65;43.79
1371;BME280;14306;49.942;11.570;2023-05-24T06:44:49;97959.22;;;16.87;44.81
1371;BME280;14306;49.942;11.570;2023-05-24T06:49:45;97958.41;;;17.45;43.42
1371;BME280;14306;49.942;11.570;2023-05-24T06:52:15;97953.13;;;17.11;44.07
1371;BME280;14306;49.942;11.570;2023-05-24T06:54:45;97967.91;;;18.12;42.36
1371;BME280;14306;49.942;11.570;2023-05-24T06:57:18;97993.78;;;18.80;40.48
1371;BME280;14306;49.942;11.570;2023-05-24T06:59:55;98009.78;;;19.50;38.92
1371;BME280;14306;49.942;11.570;2023-05-24T07:02:29;98036.47;;;20.87;36.75
1371;BME280;14306;49.942;11.570;2023-05-24T07:05:01;98027.81;;;20.42;36.49
1371;BME280;14306;49.942;11.570;2023-05-24T07:07:32;98028.97;;;20.14;37.18
1371;BME280;14306;49.942;11.570;2023-05-24T07:10:05;97986.69;;;18.67;39.69
1371;BME280;14306;49.942;11.570;2023-05-24T07:12:39;97980.41;;;18.34;40.36
1371;BME280;14306;49.942;11.570;2023-05-24T07:15:14;97982.56;;;18.28;40.80
1371;BME280;14306;49.942;11.570;2023-05-24T07:17:47;97976.31;;;17.95;41.53
1371;BME280;14306;49.942;11.570;2023-05-24T07:20:19;97967.66;;;17.32;42.33
1371;BME280;14306;49.942;11.570;2023-05-24T07:22:49;97972.59;;;17.38;42.19
1371;BME280;14306;49.942;11.570;2023-05-24T07:25:21;97960.97;;;17.21;42.38
1371;BME280;14306;49.942;11.570;2023-05-24T07:27:52;97960.34;;;16.95;43.30
1371;BME280;14306;49.942;11.570;2023-05-24T07:30:21;97958.53;;;16.70;43.61
1371;BME280;14306;49.942;11.570;2023-05-24T07:32:56;97947.47;;;16.12;44.98
1371;BME280;14306;49.942;11.570;2023-05-24T07:35:27;97918.75;;;14.69;48.02
1371;BME280;14306;49.942;11.570;2023-05-24T07:37:57;97931.38;;;15.47;46.66
1371;BME280;14306;49.942;11.570;2023-05-24T07:40:27;97933.44;;;15.58;45.88
1371;BME280;14306;49.942;11.570;2023-05-24T07:42:56;97938.25;;;15.79;45.77
1371;BME280;14306;49.942;11.570;2023-05-24T07:45:25;97918.31;;;14.93;46.77
1371;BME280;14306;49.942;11.570;2023-05-24T07:47:58;97885.69;;;14.15;47.42
1371;BME280;14306;49.942;11.570;2023-05-24T07:50:29;97931.97;;;15.70;45.56
1371;BME280;14306;49.942;11.570;2023-05-24T07:52:58;97913.38;;;15.12;46.84
1371;BME280;14306;49.942;11.570;2023-05-24T07:55:28;97906.75;;;14.79;47.17
1371;BME280;14306;49.942;11.570;2023-05-24T07:57:58;97913.63;;;14.68;47.60
1371;BME280;14306;49.942;11.570;2023-05-24T08:00:31;97931.38;;;15.38;46.55
1371;BME280;14306;49.942;11.570;2023-05-24T08:03:06;97948.81;;;15.97;45.22
1371;BME280;14306;49.942;11.570;2023-05-24T08:05:46;97927.66;;;15.09;47.07
1371;BME280;14306;49.942;11.570;2023-05-24T08:08:19;97932.47;;;15.12;46.45
1371;BME280;14306;49.942;11.570;2023-05-24T08:10:54;97928.13;;;15.28;45.73
1371;BME280;14306;49.942;11.570;2023-05-24T08:13:27;97935.03;;;15.00;46.10
1371;BME280;14306;49.942;11.570;2023-05-24T08:15:59;97929.56;;;15.34;44.79
1371;BME280;14306;49.942;11.570;2023-05-24T08:18:30;97928.94;;;15.11;45.94
1371;BME280;14306;49.942;11.570;2023-05-24T08:21:06;97946.41;;;15.87;44.29
1371;BME280;14306;49.942;11.570;2023-05-24T08:23:42;97926.84;;;15.08;44.95
1371;BME280;14306;49.942;11.570;2023-05-24T08:26:14;97942.59;;;15.63;44.48
1371;BME280;14306;49.942;11.570;2023-05-24T08:28:47;97954.16;;;15.85;44.15
1371;BME280;14306;49.942;11.570;2023-05-24T08:31:22;97949.34;;;15.65;44.70
1371;BME280;14306;49.942;11.570;2023-05-24T08:33:56;97952.56;;;15.76;44.81
1371;BME280;14306;49.942;11.570;2023-05-24T08:36:32;97955.09;;;15.89;44.31
1371;BME280;14306;49.942;11.570;2023-05-24T08:39:03;97963.22;;;16.23;43.71
1371;BME280;14306;49.942;11.570;2023-05-24T08:41:34;97959.75;;;15.97;43.99
1371;BME280;14306;49.942;11.570;2023-05-24T08:44:04;97955.38;;;16.05;43.77
1371;BME280;14306;49.942;11.570;2023-05-24T08:46:35;97970.06;;;16.46;42.73
1371;BME280;14306;49.942;11.570;2023-05-24T08:49:04;97959.41;;;15.99;43.68
1371;BME280;14306;49.942;11.570;2023-05-24T08:51:34;97975.50;;;16.55;42.62
1371;BME280;14306;49.942;11.570;2023-05-24T08:54:06;97977.03;;;17.02;41.92
1371;BME280;14306;49.942;11.570;2023-05-24T08:56:38;97962.34;;;16.48;41.97
1371;BME280;14306;49.942;11.570;2023-05-24T08:59:07;97979.16;;;16.67;42.11
1371;BME280;14306;49.942;11.570;2023-05-24T09:01:36;97994.53;;;17.09;41.70
1371;BME280;14306;49.942;11.570;2023-05-24T09:04:06;97987.69;;;16.66;42.14
1371;BME280;14306;49.942;11.570;2023-05-24T09:06:37;97972.16;;;16.41;42.29
1371;BME280;14306;49.942;11.570;2023-05-24T09:09:06;97966.78;;;16.07;42.96
1371;BME280;14306;49.942;11.570;2023-05-24T09:11:38;97986.31;;;17.09;41.12
1371;BME280;14306;49.942;11.570;2023-05-24T09:14:08;97967.78;;;15.94;42.59
1371;BME280;14306;49.942;11.570;2023-05-24T09:16:37;97983.81;;;16.12;42.38
1371;BME280;14306;49.942;11.570;2023-05-24T09:19:06;97972.50;;;16.31;42.35
1371;BME280;14306;49.942;11.570;2023-05-24T09:21:34;97993.09;;;16.45;42.46
1371;BME280;14306;49.942;11.570;2023-05-24T09:24:07;97965.19;;;16.06;42.99
1371;BME280;14306;49.942;11.570;2023-05-24T09:26:38;97978.59;;;16.53;42.11
1371;BME280;14306;49.942;11.570;2023-05-24T09:29:07;97965.53;;;15.96;42.47
1371;BME280;14306;49.942;11.570;2023-05-24T09:31:38;97973.97;;;16.20;42.14
1371;BME280;14306;49.942;11.570;2023-05-24T09:34:09;97982.72;;;17.17;40.93
1371;BME280;14306;49.942;11.570;2023-05-24T09:36:45;97977.41;;;17.21;39.63
1371;BME280;14306;49.942;11.570;2023-05-24T09:39:17;97984.34;;;17.18;39.91
1371;BME280;14306;49.942;11.570;2023-05-24T09:41:51;97972.59;;;16.60;40.91
1371;BME280;14306;49.942;11.570;2023-05-24T09:44:23;97963.97;;;16.49;41.53
1371;BME280;14306;49.942;11.570;2023-05-24T09:46:53;97990.53;;;17.56;39.85
1371;BME280;14306;49.942;11.570;2023-05-24T09:49:22;97970.28;;;16.70;40.27
1371;BME280;14306;49.942;11.570;2023-05-24T09:51:51;98000.84;;;17.92;38.47
1371;BME280;14306;49.942;11.570;2023-05-24T09:54:22;97992.47;;;17.56;39.63
1371;BME280;14306;49.942;11.570;2023-05-24T09:56:51;98014.38;;;18.29;37.73
1371;BME280;14306;49.942;11.570;2023-05-24T09:59:20;98008.16;;;18.53;37.40
1371;BME280;14306;49.942;11.570;2023-05-24T10:01:48;97985.69;;;17.94;37.80
1371;BME280;14306;49.942;11.570;2023-05-24T10:04:31;97991.72;;;17.67;38.68
1371;BME280;14306;49.942;11.570;2023-05-24T10:07:00;97992.41;;;17.85;38.50
1371;BME280;14306;49.942;11.570;2023-05-24T10:09:31;98012.72;;;18.49;37.32
1371;BME280;14306;49.942;11.570;2023-05-24T10:12:01;98022.81;;;18.69;37.44
1371;BME280;14306;49.942;11.570;2023-05-24T10:14:32;98000.13;;;17.83;38.68
1371;BME280;14306;49.942;11.570;2023-05-24T10:17:02;98030.28;;;18.80;37.38
1371;BME280;14306;49.942;11.570;2023-05-24T10:19:33;98026.75;;;18.92;37.15
1371;BME280;14306;49.942;11.570;2023-05-24T10:22:04;98017.16;;;18.41;37.71
1371;BME280;14306;49.942;11.570;2023-05-24T10:24:38;98032.69;;;19.06;36.81
1371;BME280;14306;49.942;11.570;2023-05-24T10:27:14;98018.94;;;18.82;36.63
1371;BME280;14306;49.942;11.570;2023-05-24T10:29:52;98027.44;;;19.13;36.13
1371;BME280;14306;49.942;11.570;2023-05-24T10:32:25;98012.31;;;18.71;36.90
1371;BME280;14306;49.942;11.570;2023-05-24T10:34:58;98023.06;;;19.48;35.68
1371;BME280;14306;49.942;11.570;2023-05-24T10:37:26;98072.03;;;21.08;33.47
1371;BME280;14306;49.942;11.570;2023-05-24T10:39:57;98048.59;;;20.12;34.63
1371;BME280;14306;49.942;11.570;2023-05-24T10:42:29;98082.25;;;20.92;33.53
1371;BME280;14306;49.942;11.570;2023-05-24T10:44:59;98091.38;;;21.73;32.59
1371;BME280;14306;49.942;11.570;2023-05-24T10:47:27;98067.56;;;21.50;32.43
1371;BME280;14306;49.942;11.570;2023-05-24T10:49:56;98096.13;;;22.65;30.69
1371;BME280;14306;49.942;11.570;2023-05-24T10:52:32;98095.69;;;22.63;30.35
1371;BME280;14306;49.942;11.570;2023-05-24T10:55:05;98088.13;;;22.40;31.44
1371;BME280;14306;49.942;11.570;2023-05-24T10:57:34;98082.03;;;21.78;31.85
1371;BME280;14306;49.942;11.570;2023-05-24T11:03:02;98141.13;;;23.97;28.79
1371;BME280;14306;49.942;11.570;2023-05-24T11:05:48;98067.59;;;21.19;30.70
1371;BME280;14306;49.942;11.570;2023-05-24T11:08:22;98036.09;;;20.03;31.83
1371;BME280;14306;49.942;11.570;2023-05-24T11:11:03;98055.53;;;20.49;31.05
1371;BME280;14306;49.942;11.570;2023-05-24T11:13:54;98062.38;;;21.29;30.22
1371;BME280;14306;49.942;11.570;2023-05-24T11:16:33;98062.56;;;21.71;29.72
1371;BME280;14306;49.942;11.570;2023-05-24T11:19:11;98064.16;;;21.72;29.69
1371;BME280;14306;49.942;11.570;2023-05-24T11:21:43;98026.25;;;20.02;32.65
1371;BME280;14306;49.942;11.570;2023-05-24T11:24:12;98058.94;;;21.51;30.66
1371;BME280;14306;49.942;11.570;2023-05-24T11:26:42;98067.19;;;21.51;30.89
1371;BME280;14306;49.942;11.570;2023-05-24T11:29:12;98053.22;;;21.60;30.85
1371;BME280;14306;49.942;11.570;2023-05-24T11:31:49;98102.84;;;23.09;29.14
1371;BME280;14306;49.942;11.570;2023-05-24T11:34:19;98090.94;;;22.82;28.41
1371;BME280;14306;49.942;11.570;2023-05-24T11:36:48;98075.19;;;22.44;29.64
1371;BME280;14306;49.942;11.570;2023-05-24T11:39:17;98112.19;;;23.68;28.24
1371;BME280;14306;49.942;11.570;2023-05-24T11:41:48;98119.69;;;24.20;27.38
1371;BME280;14306;49.942;11.570;2023-05-24T11:44:17;98094.28;;;23.36;28.80
1371;BME280;14306;49.942;11.570;2023-05-24T11:46:46;98071.19;;;21.85;30.78
1371;BME280;14306;49.942;11.570;2023-05-24T11:49:15;98088.00;;;22.94;29.48
1371;BME280;14306;49.942;11.570;2023-05-24T11:51:44;98081.41;;;22.80;29.74
1371;BME280;14306;49.942;11.570;2023-05-24T11:54:12;98073.50;;;22.78;29.36
1371;BME280;14306;49.942;11.570;2023-05-24T11:56:40;98093.19;;;23.41;28.60
1371;BME280;14306;49.942;11.570;2023-05-24T11:59:13;98085.75;;;23.22;29.36
1371;BME280;14306;49.942;11.570;2023-05-24T12:01:43;98041.25;;;21.52;30.91
1371;BME280;14306;49.942;11.570;2023-05-24T12:04:11;98059.19;;;22.34;29.46
1371;BME280;14306;49.942;11.570;2023-05-24T12:06:40;98033.34;;;21.51;31.89
1371;BME280;14306;49.942;11.570;2023-05-24T12:09:12;98058.47;;;22.18;30.59
1371;BME280;14306;49.942;11.570;2023-05-24T12:11:41;98074.19;;;22.94;29.35
1371;BME280;14306;49.942;11.570;2023-05-24T12:14:12;98072.63;;;22.97;29.11
1371;BME280;14306;49.942;11.570;2023-05-24T12:16:42;98046.69;;;21.83;30.13
1371;BME280;14306;49.942;11.570;2023-05-24T12:19:17;98061.09;;;22.49;29.78
1371;BME280;14306;49.942;11.570;2023-05-24T12:21:59;98069.97;;;23.23;28.75
1371;BME280;14306;49.942;11.570;2023-05-24T12:24:27;98078.38;;;23.30;28.77
1371;BME280;14306;49.942;11.570;2023-05-24T12:27:01;98030.28;;;21.71;30.61
1371;BME280;14306;49.942;11.570;2023-05-24T12:29:35;98070.09;;;23.30;28.52
1371;BME280;14306;49.942;11.570;2023-05-24T12:32:05;98043.47;;;22.16;29.77
1371;BME280;14306;49.942;11.570;2023-05-24T12:34:39;98046.22;;;22.54;29.37
1371;BME280;14306;49.942;11.570;2023-05-24T12:37:09;98044.31;;;22.58;29.09
1371;BME280;14306;49.942;11.570;2023-05-24T12:39:38;98018.97;;;21.76;30.32
1371;BME280;14306;49.942;11.570;2023-05-24T12:42:09;98026.84;;;21.43;30.61
1371;BME280;14306;49.942;11.570;2023-05-24T12:44:41;98012.44;;;21.69;30.72
1371;BME280;14306;49.942;11.570;2023-05-24T12:47:11;98017.44;;;21.29;31.20
1371;BME280;14306;49.942;11.570;2023-05-24T12:49:41;98021.78;;;21.45;30.59
1371;BME280;14306;49.942;11.570;2023-05-24T12:52:09;98005.31;;;20.99;31.34
1371;BME280;14306;49.942;11.570;2023-05-24T12:54:38;98013.75;;;21.71;30.57
1371;BME280;14306;49.942;11.570;2023-05-24T12:57:07;98024.19;;;21.81;30.48
1371;BME280;14306;49.942;11.570;2023-05-24T12:59:36;97999.50;;;20.88;31.76
1371;BME280;14306;49.942;11.570;2023-05-24T13:02:06;97973.38;;;20.08;33.37
1371;BME280;14306;49.942;11.570;2023-05-24T13:04:34;98009.81;;;21.57;30.91
1371;BME280;14306;49.942;11.570;2023-05-24T13:07:03;98017.72;;;22.31;30.06
1371;BME280;14306;49.942;11.570;2023-05-24T13:09:31;98034.94;;;23.08;28.78
1371;BME280;14306;49.942;11.570;2023-05-24T13:12:00;98042.59;;;23.18;28.47
1371;BME280;14306;49.942;11.570;2023-05-24T13:14:28;98031.44;;;22.88;28.64
1371;BME280;14306;49.942;11.570;2023-05-24T13:16:56;98056.56;;;23.77;27.75
1371;BME280;14306;49.942;11.570;2023-05-24T13:19:27;98011.53;;;22.79;28.63
1371;BME280;14306;49.942;11.570;2023-05-24T13:21:55;98003.78;;;22.05;29.04
1371;BME280;14306;49.942;11.570;2023-05-24T13:24:23;97978.88;;;21.13;30.32
1371;BME280;14306;49.942;11.570;2023-05-24T13:26:51;97993.56;;;21.52;30.56